createdAt,value
2023-02-19T00:01:40.007Z,101852.28
2023-02-19T00:04:11.775Z,101854.06
2023-02-19T00:06:38.296Z,101853.25
2023-02-19T00:09:04.930Z,101855.84
2023-02-19T00:11:33.541Z,101850.66
2023-02-19T00:14:01.270Z,101855.16
2023-02-19T00:16:38.518Z,101850.13
2023-02-19T00:19:08.763Z,101854.38
2023-02-19T00:21:35.173Z,101859.56
2023-02-19T00:24:04.319Z,101852.72
2023-02-19T00:26:31.513Z,101863.75
2023-02-19T00:28:58.744Z,101861.16
2023-02-19T00:31:33.728Z,101869.09
2023-02-19T00:34:05.366Z,101868.94
2023-02-19T00:36:35.826Z,101861.31
2023-02-19T00:39:03.146Z,101863.09
2023-02-19T00:41:30.531Z,101867.47
2023-02-19T00:43:59.271Z,101872.66
2023-02-19T00:46:34.280Z,101868.94
2023-02-19T00:49:01.525Z,101873.31
2023-02-19T00:51:30.749Z,101863.75
2023-02-19T00:53:57.570Z,101876.06
2023-02-19T00:56:24.008Z,101871.69
2023-02-19T00:58:50.682Z,101867.34
2023-02-19T01:01:17.652Z,101874.28
2023-02-19T01:03:44.141Z,101874.28
2023-02-19T01:06:15.415Z,101876.06
2023-02-19T01:08:42.023Z,101874.44
2023-02-19T01:11:09.590Z,101883.19
2023-02-19T01:13:36.676Z,101879.59
2023-02-19T01:16:14.147Z,101878.81
2023-02-19T01:18:40.914Z,101889.19
2023-02-19T01:21:09.856Z,101887.38
2023-02-19T01:23:36.860Z,101894.38
2023-02-19T01:26:08.994Z,101903.13
2023-02-19T01:28:35.584Z,101899.69
2023-02-19T01:31:07.509Z,101906.81
2023-02-19T01:33:34.704Z,101905.16
2023-02-19T01:36:03.913Z,101905.31
2023-02-19T01:38:30.314Z,101903.69
2023-02-19T01:41:05.217Z,101902.06
2023-02-19T01:43:33.823Z,101898.66
2023-02-19T01:46:00.328Z,101898.81
2023-02-19T01:48:31.908Z,101898.97
2023-02-19T01:51:05.684Z,101905.22
2023-02-19T01:53:37.406Z,101905.38
2023-02-19T01:56:05.003Z,101909.75
2023-02-19T01:58:34.364Z,101908.13
2023-02-19T02:01:04.507Z,101912.63
2023-02-19T02:03:32.056Z,101902.28
2023-02-19T02:06:09.027Z,101903.41
2023-02-19T02:08:54.127Z,101902.69
2023-02-19T02:11:21.046Z,101907.22
2023-02-19T02:13:48.513Z,101908.19
2023-02-19T02:16:20.944Z,101910.91
2023-02-19T02:19:02.113Z,101922.13
2023-02-19T02:21:49.989Z,101910.91
2023-02-19T02:24:28.553Z,101914.47
2023-02-19T02:27:11.603Z,101920.63
2023-02-19T02:29:50.220Z,101921.41
2023-02-19T02:32:24.268Z,101914.75
2023-02-19T02:35:01.513Z,101908.78
2023-02-19T02:37:34.478Z,101915.06
2023-02-19T02:40:00.969Z,101914.25
2023-02-19T02:42:27.471Z,101920.38
2023-02-19T02:45:13.688Z,101930.88
2023-02-19T02:47:46.155Z,101929.94
2023-02-19T02:50:26.489Z,101935.13
2023-02-19T02:53:17.920Z,101921.47
2023-02-19T02:55:49.941Z,101925.84
2023-02-19T02:58:17.613Z,101936.22
2023-02-19T03:01:07.818Z,101935.41
2023-02-19T03:03:38.680Z,101937.16
2023-02-19T03:06:09.103Z,101933.75
2023-02-19T03:08:45.941Z,101931.16
2023-02-19T03:11:31.488Z,101932.13
2023-02-19T03:14:24.916Z,101937.31
2023-02-19T03:17:14.349Z,101948.50
2023-02-19T03:19:44.674Z,101939.75
2023-02-19T03:22:16.697Z,101943.19
2023-02-19T03:25:18.232Z,101944.78
2023-02-19T03:27:47.933Z,101952.44
2023-02-19T03:30:25.480Z,101942.19
2023-02-19T03:32:57.886Z,101948.38
2023-02-19T03:35:32.968Z,101957.09
2023-02-19T03:38:12.123Z,101948.50
2023-02-19T03:40:51.828Z,101950.25
2023-02-19T03:43:24.275Z,101953.81
2023-02-19T03:46:06.758Z,101959.69
2023-02-19T03:48:43.857Z,101963.06
2023-02-19T03:51:32.705Z,101974.28
2023-02-19T03:54:04.320Z,101971.69
2023-02-19T03:56:47.599Z,101974.41
2023-02-19T03:59:20.215Z,101979.75
2023-02-19T04:01:59.289Z,101981.53
2023-02-19T04:04:32.187Z,101984.13
2023-02-19T04:06:59.004Z,101984.91
2023-02-19T04:09:31.632Z,101996.22
2023-02-19T04:11:58.465Z,101992.84
2023-02-19T04:14:48.058Z,102004.97
2023-02-19T04:17:45.432Z,102004.16
2023-02-19T04:20:13.874Z,101999.09
2023-02-19T04:22:41.745Z,102009.59
2023-02-19T04:25:09.027Z,102010.59
2023-02-19T04:27:39.093Z,102014.94
2023-02-19T04:30:08.026Z,102015.91
2023-02-19T04:32:34.645Z,102020.25
2023-02-19T04:35:01.083Z,102016.03
2023-02-19T04:37:27.499Z,102027.34
2023-02-19T04:39:53.863Z,102027.50
2023-02-19T04:42:20.279Z,102043.03
2023-02-19T04:44:46.652Z,102039.78
2023-02-19T04:47:13.119Z,102046.59
2023-02-19T04:49:39.520Z,102047.41
2023-02-19T04:52:05.871Z,102050.81
2023-02-19T04:54:32.296Z,102058.59
2023-02-19T04:56:58.695Z,102057.78
2023-02-19T04:59:25.151Z,102067.34
2023-02-19T05:01:51.574Z,102066.34
2023-02-19T05:04:17.994Z,102068.94
2023-02-19T05:06:44.533Z,102075.09
2023-02-19T05:09:10.928Z,102069.91
2023-02-19T05:11:37.375Z,102080.16
2023-02-19T05:14:03.852Z,102077.69
2023-02-19T05:16:30.250Z,102082.88
2023-02-19T05:18:56.720Z,102081.91
2023-02-19T05:21:23.131Z,102085.47
2023-02-19T05:23:49.513Z,102094.19
2023-02-19T05:26:19.772Z,102094.31
2023-02-19T05:28:48.080Z,102101.28
2023-02-19T05:31:15.233Z,102105.75
2023-02-19T05:33:43.097Z,102101.56
2023-02-19T05:36:12.237Z,102099.91
2023-02-19T05:38:39.518Z,102102.50
2023-02-19T05:41:14.249Z,102101.84
2023-02-19T05:43:41.819Z,102106.19
2023-02-19T05:46:09.617Z,102105.38
2023-02-19T05:48:36.041Z,102107.28
2023-02-19T05:51:08.455Z,102096.91
2023-02-19T05:53:35.839Z,102105.63
2023-02-19T05:56:02.455Z,102103.03
2023-02-19T05:58:28.856Z,102105.63
2023-02-19T06:00:55.705Z,102116.00
2023-02-19T06:03:22.566Z,102120.22
2023-02-19T06:05:49.028Z,102124.75
2023-02-19T06:08:16.192Z,102125.69
2023-02-19T06:10:43.387Z,102119.69
2023-02-19T06:13:10.139Z,102128.13
2023-02-19T06:15:37.513Z,102133.47
2023-02-19T06:18:04.296Z,102141.22
2023-02-19T06:20:30.714Z,102143.00
2023-02-19T06:22:57.161Z,102149.00
2023-02-19T06:25:23.662Z,102161.13
2023-02-19T06:27:50.058Z,102161.28
2023-02-19T06:30:16.526Z,102163.19
2023-02-19T06:32:42.942Z,102164.25
2023-02-19T06:35:09.312Z,102179.00
2023-02-19T06:37:35.769Z,102166.16
2023-02-19T06:40:02.155Z,102174.88
2023-02-19T06:42:32.548Z,102174.06
2023-02-19T06:44:58.982Z,102180.97
2023-02-19T06:47:25.575Z,102187.13
2023-02-19T06:49:52.045Z,102178.53
2023-02-19T06:52:18.433Z,102186.47
2023-02-19T06:54:44.807Z,102186.47
2023-02-19T06:57:11.245Z,102191.78
2023-02-19T06:59:37.680Z,102185.75
2023-02-19T07:02:04.073Z,102191.78
2023-02-19T07:04:30.579Z,102196.94
2023-02-19T07:06:57.041Z,102208.25
2023-02-19T07:09:25.356Z,102219.28
2023-02-19T07:11:52.316Z,102217.66
2023-02-19T07:14:18.982Z,102216.69
2023-02-19T07:16:47.293Z,102221.88
2023-02-19T07:19:15.370Z,102229.63
2023-02-19T07:21:42.331Z,102240.13
2023-02-19T07:24:10.013Z,102250.50
2023-02-19T07:26:36.564Z,102247.91
2023-02-19T07:29:03.436Z,102257.31
2023-02-19T07:31:30.051Z,102254.59
2023-02-19T07:33:56.528Z,102258.81
2023-02-19T07:36:24.141Z,102262.09
2023-02-19T07:38:58.086Z,102265.41
2023-02-19T07:41:25.406Z,102271.50
2023-02-19T07:43:53.085Z,102267.84
2023-02-19T07:46:21.924Z,102264.31
2023-02-19T07:48:48.552Z,102262.41
2023-02-19T07:51:18.931Z,102268.53
2023-02-19T07:53:46.828Z,102280.53
2023-02-19T07:56:14.120Z,102283.69
2023-02-19T07:58:41.154Z,102278.38
2023-02-19T08:01:48.626Z,102285.19
2023-02-19T08:04:15.266Z,102290.13
2023-02-19T08:06:42.318Z,102296.09
2023-02-19T08:09:09.808Z,102293.66
2023-02-19T08:11:54.977Z,102291.88
2023-02-19T08:14:25.178Z,102303.88
2023-02-19T08:16:52.472Z,102302.94
2023-02-19T08:19:19.627Z,102304.69
2023-02-19T08:21:46.134Z,102313.84
2023-02-19T08:24:12.583Z,102319.16
2023-02-19T08:26:38.973Z,102321.75
2023-02-19T08:29:06.461Z,102325.28
2023-02-19T08:31:34.594Z,102338.50
2023-02-19T08:34:01.024Z,102337.00
2023-02-19T08:36:27.473Z,102340.97
2023-02-19T08:38:54.110Z,102343.41
2023-02-19T08:41:20.672Z,102345.06
2023-02-19T08:43:47.297Z,102347.78
2023-02-19T08:46:13.855Z,102354.47
2023-02-19T08:48:40.777Z,102364.56
2023-02-19T08:51:10.296Z,102361.97
2023-02-19T08:53:38.468Z,102356.78
2023-02-19T08:56:10.215Z,102349.16
2023-02-19T08:58:37.410Z,102344.81
2023-02-19T09:01:08.998Z,102357.88
2023-02-19T09:03:35.547Z,102362.22
2023-02-19T09:06:01.938Z,102352.44
2023-02-19T09:08:28.321Z,102349.72
2023-02-19T09:11:03.485Z,102349.16
2023-02-19T09:13:30.426Z,102367.03
2023-02-19T09:15:57.294Z,102363.94
2023-02-19T09:18:24.824Z,102372.25
2023-02-19T09:20:51.469Z,102376.38
2023-02-19T09:23:17.916Z,102373.78
2023-02-19T09:25:44.366Z,102381.03
2023-02-19T09:28:10.789Z,102380.75
2023-02-19T09:30:37.195Z,102386.09
2023-02-19T09:33:05.238Z,102401.38
2023-02-19T09:35:31.875Z,102417.75
2023-02-19T09:38:00.513Z,102412.16
2023-02-19T09:40:27.014Z,102427.16
2023-02-19T09:42:53.472Z,102429.75
2023-02-19T09:45:24.983Z,102436.00
2023-02-19T09:47:57.984Z,102440.38
2023-02-19T09:50:41.115Z,102452.50
2023-02-19T09:53:25.029Z,102450.28
2023-02-19T09:55:52.991Z,102464.34
2023-02-19T09:58:27.014Z,102464.88
2023-02-19T10:00:56.621Z,102468.56
2023-02-19T10:03:41.336Z,102472.59
2023-02-19T10:06:23.644Z,102484.81
2023-02-19T10:08:54.967Z,102493.22
2023-02-19T10:11:23.209Z,102500.31
2023-02-19T10:13:56.779Z,102513.56
2023-02-19T10:16:27.365Z,102513.09
2023-02-19T10:18:53.864Z,102513.41
2023-02-19T10:21:27.238Z,102522.81
2023-02-19T10:23:56.885Z,102529.63
2023-02-19T10:26:24.176Z,102537.16
2023-02-19T10:28:50.653Z,102540.50
2023-02-19T10:31:22.750Z,102533.84
2023-02-19T10:33:51.796Z,102550.31
2023-02-19T10:36:38.304Z,102544.88
2023-02-19T10:39:40.032Z,102546.75
2023-02-19T10:42:13.522Z,102544.38
2023-02-19T10:44:44.544Z,102545.88
2023-02-19T10:47:21.632Z,102546.97
2023-02-19T10:49:49.910Z,102550.88
2023-02-19T10:52:21.313Z,102555.25
2023-02-19T10:54:55.038Z,102543.69
2023-02-19T10:57:33.777Z,102547.47
2023-02-19T11:00:03.956Z,102549.78
2023-02-19T11:02:31.682Z,102546.84
2023-02-19T11:05:15.056Z,102538.09
2023-02-19T11:07:50.348Z,102534.31
2023-02-19T11:10:25.888Z,102530.31
2023-02-19T11:12:55.271Z,102542.59
2023-02-19T11:15:27.339Z,102550.47
2023-02-19T11:18:05.537Z,102563.31
2023-02-19T11:20:32.428Z,102560.41
2023-02-19T11:23:05.677Z,102565.38
2023-02-19T11:25:33.687Z,102563.03
2023-02-19T11:28:36.993Z,102572.44
2023-02-19T11:31:24.824Z,102565.13
2023-02-19T11:34:29.310Z,102560.16
2023-02-19T11:37:29.953Z,102570.41
2023-02-19T11:39:56.341Z,102568.75
2023-02-19T11:42:31.885Z,102576.25
2023-02-19T11:45:10.857Z,102578.84
2023-02-19T11:48:14.603Z,102576.31
2023-02-19T11:51:02.058Z,102582.09
2023-02-19T11:53:34.212Z,102577.03
2023-02-19T11:56:06.588Z,102571.88
2023-02-19T11:59:00.417Z,102571.94
2023-02-19T12:01:34.563Z,102569.97
2023-02-19T12:04:20.936Z,102572.69
2023-02-19T12:07:13.155Z,102578.09
2023-02-19T12:09:50.249Z,102573.16
2023-02-19T12:12:37.910Z,102575.63
2023-02-19T12:15:10.575Z,102584.19
2023-02-19T12:17:36.904Z,102587.84
2023-02-19T12:20:23.457Z,102586.91
2023-02-19T12:22:58.099Z,102590.53
2023-02-19T12:25:55.761Z,102585.59
2023-02-19T12:28:31.346Z,102575.28
2023-02-19T12:31:04.695Z,102584.06
2023-02-19T12:34:08.839Z,102587.72
2023-02-19T12:36:53.967Z,102591.94
2023-02-19T12:39:56.395Z,102605.56
2023-02-19T12:43:10.816Z,102604.50
2023-02-19T12:45:58.903Z,102600.88
2023-02-19T12:48:42.976Z,102606.75
2023-02-19T12:51:27.714Z,102620.56
2023-02-19T12:53:58.947Z,102618.59
2023-02-19T12:56:30.755Z,102617.06
2023-02-19T12:59:03.570Z,102618.47
2023-02-19T13:01:38.540Z,102634.44
2023-02-19T13:04:13.942Z,102631.63
2023-02-19T13:06:48.230Z,102633.50
2023-02-19T13:09:33.951Z,102639.88
2023-02-19T13:12:45.533Z,102639.16
2023-02-19T13:15:17.037Z,102638.69
2023-02-19T13:17:53.921Z,102648.19
2023-02-19T13:20:29.672Z,102666.06
2023-02-19T13:23:36.670Z,102669.47
2023-02-19T13:26:26.967Z,102672.25
2023-02-19T13:29:21.399Z,102677.31
2023-02-19T13:32:02.902Z,102674.88
2023-02-19T13:34:32.474Z,102668.28
2023-02-19T13:36:59.490Z,102669.81
2023-02-19T13:39:27.586Z,102678.44
2023-02-19T13:41:57.418Z,102675.38
2023-02-19T13:44:29.541Z,102675.16
2023-02-19T13:46:56.645Z,102688.31
2023-02-19T13:49:22.998Z,102689.03
2023-02-19T13:52:03.892Z,102687.84
2023-02-19T13:54:40.216Z,102688.22
2023-02-19T13:57:20.616Z,102687.63
2023-02-19T13:59:48.262Z,102687.19
2023-02-19T14:02:20.671Z,102685.50
2023-02-19T14:05:10.423Z,102690.22
2023-02-19T14:07:47.219Z,102692.13
2023-02-19T14:10:51.014Z,102692.00
2023-02-19T14:13:50.613Z,102699.53
2023-02-19T14:16:32.178Z,102697.53
2023-02-19T14:18:58.861Z,102697.88
2023-02-19T14:21:35.809Z,102682.66
2023-02-19T14:24:03.609Z,102677.94
2023-02-19T14:26:32.327Z,102679.38
2023-02-19T14:28:59.992Z,102681.84
2023-02-19T14:31:31.789Z,102670.06
2023-02-19T14:33:59.932Z,102667.84
2023-02-19T14:36:43.979Z,102661.72
2023-02-19T14:39:22.558Z,102661.38
2023-02-19T14:41:52.656Z,102658.44
2023-02-19T14:44:24.909Z,102643.16
2023-02-19T14:46:57.577Z,102649.97
2023-02-19T14:49:33.695Z,102647.75
2023-02-19T14:52:05.647Z,102643.16
2023-02-19T14:55:01.361Z,102645.97
2023-02-19T14:57:32.258Z,102648.31
2023-02-19T15:00:01.021Z,102632.19
2023-02-19T15:02:29.819Z,102619.91
2023-02-19T15:04:56.633Z,102617.19
2023-02-19T15:07:29.858Z,102633.31
2023-02-19T15:10:05.433Z,102616.38
2023-02-19T15:12:36.260Z,102636.50
2023-02-19T15:15:05.419Z,102638.63
2023-02-19T15:17:35.382Z,102645.34
2023-02-19T15:20:08.897Z,102662.06
2023-02-19T15:22:35.392Z,102668.19
2023-02-19T15:25:03.584Z,102676.31
2023-02-19T15:27:30.294Z,102686.06
2023-02-19T15:29:56.693Z,102687.28
2023-02-19T15:32:28.629Z,102693.75
2023-02-19T15:34:57.809Z,102702.94
2023-02-19T15:37:33.324Z,102698.81
2023-02-19T15:40:05.438Z,102697.53
2023-02-19T15:42:34.708Z,102702.94
2023-02-19T15:45:09.552Z,102707.06
2023-02-19T15:47:38.702Z,102703.84
2023-02-19T15:50:05.025Z,102697.06
2023-02-19T15:53:10.253Z,102691.03
2023-02-19T15:55:51.211Z,102677.63
2023-02-19T15:58:32.510Z,102685.03
2023-02-19T16:01:03.637Z,102698.19
2023-02-19T16:03:31.285Z,102701.22
2023-02-19T16:06:02.562Z,102705.78
2023-02-19T16:08:34.792Z,102711.81
2023-02-19T16:11:05.167Z,102724.97
2023-02-19T16:13:34.129Z,102735.63
2023-02-19T16:16:10.620Z,102735.75
2023-02-19T16:18:37.175Z,102727.50
2023-02-19T16:21:08.626Z,102742.06
2023-02-19T16:23:35.386Z,102739.69
2023-02-19T16:26:03.115Z,102739.22
2023-02-19T16:28:37.169Z,102735.09
2023-02-19T16:31:06.689Z,102742.13
2023-02-19T16:33:35.669Z,102744.00
2023-02-19T16:36:37.184Z,102740.50
2023-02-19T16:39:14.666Z,102745.56
2023-02-19T16:41:41.030Z,102741.19
2023-02-19T16:44:32.927Z,102749.88
2023-02-19T16:47:06.143Z,102744.00
2023-02-19T16:49:33.069Z,102757.97
2023-02-19T16:52:02.134Z,102759.94
2023-02-19T16:54:30.227Z,102763.59
2023-02-19T16:56:56.583Z,102762.03
2023-02-19T16:59:23.023Z,102765.53
2023-02-19T17:01:49.420Z,102747.44
2023-02-19T17:04:16.265Z,102749.44
2023-02-19T17:06:43.021Z,102751.31
2023-02-19T17:09:09.406Z,102744.38
2023-02-19T17:11:36.260Z,102742.75
2023-02-19T17:14:02.798Z,102739.31
2023-02-19T17:16:34.220Z,102746.38
2023-02-19T17:19:00.641Z,102754.22
2023-02-19T17:21:29.379Z,102756.09
2023-02-19T17:23:57.032Z,102752.69
2023-02-19T17:26:26.777Z,102766.44
2023-02-19T17:28:53.293Z,102761.47
2023-02-19T17:31:19.828Z,102769.34
2023-02-19T17:33:47.008Z,102765.09
2023-02-19T17:36:30.514Z,102765.31
2023-02-19T17:39:01.717Z,102774.94
2023-02-19T17:41:29.146Z,102780.94
2023-02-19T17:43:55.665Z,102781.03
2023-02-19T17:46:24.640Z,102780.19
2023-02-19T17:48:51.747Z,102794.88
2023-02-19T17:51:18.111Z,102809.56
2023-02-19T17:53:46.505Z,102801.91
2023-02-19T17:56:22.152Z,102803.66
2023-02-19T17:58:48.907Z,102802.03
2023-02-19T18:01:15.816Z,102793.41
2023-02-19T18:03:42.620Z,102804.81
2023-02-19T18:06:09.104Z,102796.34
2023-02-19T18:08:35.907Z,102791.19
2023-02-19T18:11:02.993Z,102788.47
2023-02-19T18:13:29.428Z,102784.16
2023-02-19T18:15:55.982Z,102785.78
2023-02-19T18:18:23.248Z,102773.13
2023-02-19T18:20:49.664Z,102778.16
2023-02-19T18:23:16.323Z,102775.69
2023-02-19T18:25:42.708Z,102785.28
2023-02-19T18:28:09.453Z,102775.81
2023-02-19T18:30:35.954Z,102755.38
2023-02-19T18:33:02.471Z,102763.41
2023-02-19T18:35:28.912Z,102771.69
2023-02-19T18:37:55.825Z,102769.63
2023-02-19T18:40:25.866Z,102776.16
2023-02-19T18:42:52.285Z,102777.28
2023-02-19T18:45:19.061Z,102767.41
2023-02-19T18:47:49.674Z,102768.53
2023-02-19T18:50:18.608Z,102773.25
2023-02-19T18:52:45.351Z,102778.72
2023-02-19T18:55:12.607Z,102778.31
2023-02-19T18:57:39.001Z,102782.44
2023-02-19T19:00:06.824Z,102787.16
2023-02-19T19:02:42.896Z,102788.31
2023-02-19T19:05:18.600Z,102770.03
2023-02-19T19:07:44.979Z,102778.25
2023-02-19T19:10:11.482Z,102778.66
2023-02-19T19:12:37.834Z,102785.16
2023-02-19T19:15:04.483Z,102783.78
2023-02-19T19:17:30.972Z,102785.84
2023-02-19T19:19:57.393Z,102785.22
2023-02-19T19:22:25.071Z,102793.41
2023-02-19T19:24:51.441Z,102791.22
2023-02-19T19:27:21.331Z,102801.84
2023-02-19T19:29:48.955Z,102797.16
2023-02-19T19:32:15.462Z,102806.94
2023-02-19T19:34:43.038Z,102803.81
2023-02-19T19:37:09.785Z,102798.03
2023-02-19T19:39:36.396Z,102803.34
2023-02-19T19:42:02.921Z,102802.00
2023-02-19T19:44:29.339Z,102803.09
2023-02-19T19:46:56.258Z,102806.72
2023-02-19T19:49:23.626Z,102803.47
2023-02-19T19:51:50.288Z,102797.59
2023-02-19T19:54:16.841Z,102794.41
2023-02-19T19:56:45.235Z,102795.50
2023-02-19T19:59:16.893Z,102790.66
2023-02-19T20:01:54.712Z,102784.03
2023-02-19T20:04:23.469Z,102791.91
2023-02-19T20:06:50.270Z,102789.53
2023-02-19T20:09:18.070Z,102787.13
2023-02-19T20:11:49.742Z,102795.03
2023-02-19T20:14:17.582Z,102794.41
2023-02-19T20:16:44.824Z,102782.47
2023-02-19T20:19:11.620Z,102792.88
2023-02-19T20:21:37.974Z,102782.75
2023-02-19T20:24:04.722Z,102779.41
2023-02-19T20:26:32.192Z,102782.94
2023-02-19T20:28:58.868Z,102784.88
2023-02-19T20:31:25.648Z,102781.63
2023-02-19T20:33:52.269Z,102782.66
2023-02-19T20:36:20.111Z,102787.88
2023-02-19T20:38:47.333Z,102795.78
2023-02-19T20:41:13.976Z,102785.50
2023-02-19T20:43:40.694Z,102789.06
2023-02-19T20:46:07.647Z,102775.47
2023-02-19T20:48:34.110Z,102787.50
2023-02-19T20:51:00.601Z,102788.50
2023-02-19T20:53:28.052Z,102784.28
2023-02-19T20:55:55.292Z,102780.97
2023-02-19T20:58:22.630Z,102775.09
2023-02-19T21:00:49.127Z,102770.78
2023-02-19T21:03:15.771Z,102767.47
2023-02-19T21:05:42.931Z,102756.56
2023-02-19T21:08:11.617Z,102755.91
2023-02-19T21:10:38.142Z,102737.16
2023-02-19T21:13:04.567Z,102735.53
2023-02-19T21:15:31.009Z,102739.00
2023-02-19T21:17:57.403Z,102726.06
2023-02-19T21:20:23.766Z,102726.88
2023-02-19T21:22:50.250Z,102739.72
2023-02-19T21:25:16.788Z,102741.41
2023-02-19T21:27:43.175Z,102741.41
2023-02-19T21:30:09.827Z,102732.78
2023-02-19T21:32:36.229Z,102737.91
2023-02-19T21:35:02.692Z,102740.50
2023-02-19T21:37:29.120Z,102739.66
2023-02-19T21:39:55.624Z,102749.94
2023-02-19T21:42:22.118Z,102756.00
2023-02-19T21:44:48.481Z,102760.38
2023-02-19T21:47:14.915Z,102746.72
2023-02-19T21:49:42.338Z,102756.28
2023-02-19T21:52:09.172Z,102749.38
2023-02-19T21:54:35.526Z,102742.56
2023-02-19T21:57:03.018Z,102752.13
2023-02-19T21:59:29.447Z,102755.50
2023-02-19T22:01:57.079Z,102751.22
2023-02-19T22:04:27.248Z,102748.56
2023-02-19T22:06:56.946Z,102743.31
2023-02-19T22:09:23.648Z,102745.72
2023-02-19T22:11:50.295Z,102743.88
2023-02-19T22:14:16.776Z,102744.78
2023-02-19T22:16:43.243Z,102750.88
2023-02-19T22:19:12.054Z,102743.16
2023-02-19T22:21:42.818Z,102741.31
2023-02-19T22:24:16.153Z,102739.47
2023-02-19T22:26:42.719Z,102741.03
2023-02-19T22:29:11.061Z,102729.81
2023-02-19T22:31:37.561Z,102727.06
2023-02-19T22:34:04.715Z,102720.94
2023-02-19T22:36:33.255Z,102723.41
2023-02-19T22:39:00.694Z,102725.03
2023-02-19T22:41:27.259Z,102727.72
2023-02-19T22:43:58.371Z,102713.13
2023-02-19T22:46:28.201Z,102717.41
2023-02-19T22:48:54.977Z,102709.72
2023-02-19T22:51:22.962Z,102713.13
2023-02-19T22:53:54.527Z,102709.53
2023-02-19T22:56:23.273Z,102702.47
2023-02-19T22:58:49.736Z,102703.19
2023-02-19T23:01:16.218Z,102705.59
2023-02-19T23:03:57.396Z,102688.31
2023-02-19T23:06:27.502Z,102694.00
2023-02-19T23:08:55.430Z,102686.09
2023-02-19T23:11:24.842Z,102684.16
2023-02-19T23:13:51.612Z,102682.25
2023-02-19T23:16:18.276Z,102682.97
2023-02-19T23:18:44.899Z,102682.88
2023-02-19T23:21:11.447Z,102675.69
2023-02-19T23:23:41.073Z,102674.78
2023-02-19T23:26:07.488Z,102678.88
2023-02-19T23:28:33.902Z,102683.13
2023-02-19T23:31:00.609Z,102689.91
2023-02-19T23:33:27.166Z,102697.53
2023-02-19T23:35:53.530Z,102694.88
2023-02-19T23:38:19.882Z,102699.81
2023-02-19T23:40:46.330Z,102702.22
2023-02-19T23:43:12.744Z,102692.63
2023-02-19T23:45:39.211Z,102692.53
2023-02-19T23:48:05.733Z,102689.78
2023-02-19T23:50:32.102Z,102674.16
2023-02-19T23:52:59.304Z,102661.09
2023-02-19T23:55:26.309Z,102665.22
2023-02-19T23:57:53.529Z,102658.94
